createdAt,value
2018-09-25T00:00:05.297Z,83.47
2018-09-25T00:03:15.952Z,85.06
2018-09-25T00:06:26.613Z,83.65
2018-09-25T00:09:37.309Z,83.77
2018-09-25T00:12:47.905Z,84.01
2018-09-25T00:15:58.643Z,85.01
2018-09-25T00:19:09.319Z,84.55
2018-09-25T00:22:19.909Z,85.43
2018-09-25T00:25:30.489Z,84.78
2018-09-25T00:28:41.102Z,84.65
2018-09-25T00:31:51.770Z,83.95
2018-09-25T00:35:02.621Z,83.66
2018-09-25T00:38:13.382Z,83.32
2018-09-25T00:41:24.094Z,85.15
2018-09-25T00:44:34.902Z,84.74
2018-09-25T00:47:45.703Z,84.87
2018-09-25T00:50:56.401Z,84.17
2018-09-25T00:54:07.188Z,83.98
2018-09-25T00:57:17.837Z,84.24
2018-09-25T01:00:28.534Z,85.15
2018-09-25T01:03:39.370Z,83.93
2018-09-25T01:06:50.088Z,84.29
2018-09-25T01:10:00.721Z,84.33
2018-09-25T01:13:11.551Z,84.35
2018-09-25T01:16:22.260Z,83.60
2018-09-25T01:19:33.001Z,83.72
2018-09-25T01:22:43.627Z,83.54
2018-09-25T01:25:54.326Z,84.24
2018-09-25T01:29:05.002Z,84.44
2018-09-25T01:32:15.628Z,84.85
2018-09-25T01:35:26.257Z,83.57
2018-09-25T01:38:36.958Z,84.92
2018-09-25T01:41:47.607Z,84.43
2018-09-25T01:44:58.409Z,83.30
2018-09-25T01:48:09.062Z,84.58
2018-09-25T01:51:19.886Z,83.92
2018-09-25T01:54:30.671Z,85.01
2018-09-25T01:57:41.267Z,85.09
2018-09-25T02:00:52.021Z,85.20
2018-09-25T02:04:02.705Z,85.24
2018-09-25T02:07:13.384Z,84.86
2018-09-25T02:10:24.053Z,86.08
2018-09-25T02:13:34.649Z,85.27
2018-09-25T02:16:45.337Z,85.39
2018-09-25T02:19:56.049Z,83.86
2018-09-25T02:23:06.737Z,84.35
2018-09-25T02:26:17.465Z,84.93
2018-09-25T02:29:28.120Z,84.65
2018-09-25T02:32:38.979Z,85.37
2018-09-25T02:35:49.623Z,85.03
2018-09-25T02:39:00.386Z,84.19
2018-09-25T02:42:11.101Z,84.18
2018-09-25T02:45:21.739Z,83.73
2018-09-25T02:48:32.495Z,85.02
2018-09-25T02:51:43.251Z,84.90
2018-09-25T02:54:53.961Z,85.28
2018-09-25T02:58:04.602Z,84.16
2018-09-25T03:01:15.296Z,84.75
2018-09-25T03:04:26.029Z,84.33
2018-09-25T03:07:37.128Z,84.83
2018-09-25T03:10:47.898Z,83.29
2018-09-25T03:13:58.478Z,83.36
2018-09-25T03:17:09.226Z,84.13
2018-09-25T03:20:20.025Z,85.17
2018-09-25T03:23:30.746Z,84.66
2018-09-25T03:26:41.338Z,83.86
2018-09-25T03:29:52.013Z,83.93
2018-09-25T03:33:02.698Z,84.88
2018-09-25T03:36:13.559Z,85.09
2018-09-25T03:39:24.195Z,85.73
2018-09-25T03:42:34.897Z,85.77
2018-09-25T03:45:45.805Z,85.10
2018-09-25T03:48:56.519Z,85.58
2018-09-25T03:52:07.487Z,84.97
2018-09-25T03:55:18.044Z,84.94
2018-09-25T03:58:29.774Z,84.39
2018-09-25T04:01:40.374Z,84.80
2018-09-25T04:04:51.042Z,84.23
2018-09-25T04:08:01.759Z,84.32
2018-09-25T04:11:12.587Z,84.66
2018-09-25T04:14:23.445Z,84.90
2018-09-25T04:17:34.074Z,85.38
2018-09-25T04:20:44.966Z,84.74
2018-09-25T04:23:55.730Z,84.79
2018-09-25T04:27:06.481Z,84.37
2018-09-25T04:30:17.105Z,84.28
2018-09-25T04:33:27.944Z,85.47
2018-09-25T04:36:39.933Z,85.38
2018-09-25T04:39:50.770Z,85.32
2018-09-25T04:43:02.748Z,85.61
2018-09-25T04:46:14.750Z,84.70
2018-09-25T04:49:25.598Z,84.95
2018-09-25T04:52:36.343Z,84.71
2018-09-25T04:55:47.051Z,84.19
2018-09-25T04:58:57.746Z,84.88
2018-09-25T05:02:10.459Z,84.28
2018-09-25T05:05:21.421Z,85.80
2018-09-25T05:08:33.586Z,84.71
2018-09-25T05:15:03.098Z,85.51
2018-09-25T05:18:14.840Z,85.05
2018-09-25T05:21:25.570Z,85.90
2018-09-25T05:24:36.899Z,85.35
2018-09-25T05:27:47.623Z,83.97
2018-09-25T05:30:58.237Z,85.70
2018-09-25T05:34:08.964Z,84.71
2018-09-25T05:37:19.637Z,84.73
2018-09-25T05:40:30.357Z,84.53
2018-09-25T05:43:43.521Z,85.26
2018-09-25T05:46:54.561Z,85.64
2018-09-25T05:50:05.198Z,84.12
2018-09-25T05:53:15.942Z,84.55
2018-09-25T05:56:26.569Z,85.02
2018-09-25T05:59:37.437Z,84.16
2018-09-25T06:02:48.149Z,84.02
2018-09-25T06:05:59.853Z,83.29
2018-09-25T06:09:12.968Z,83.40
2018-09-25T06:12:24.736Z,83.81
2018-09-25T06:15:35.716Z,83.76
2018-09-25T06:18:47.647Z,84.48
2018-09-25T06:21:58.372Z,85.07
2018-09-25T06:25:10.889Z,85.34
2018-09-25T06:28:21.583Z,85.79
2018-09-25T06:31:32.356Z,85.28
2018-09-25T06:34:44.352Z,86.20
2018-09-25T06:37:55.578Z,83.70
2018-09-25T06:41:07.466Z,83.08
2018-09-25T06:44:18.425Z,83.49
2018-09-25T06:47:29.228Z,82.96
2018-09-25T06:50:41.274Z,84.83
2018-09-25T06:53:51.969Z,84.21
2018-09-25T06:57:03.625Z,82.00
2018-09-25T07:00:15.859Z,81.83
2018-09-25T07:03:26.915Z,80.93
2018-09-25T07:06:38.065Z,80.48
2018-09-25T07:09:50.093Z,79.45
2018-09-25T07:13:00.622Z,77.34
2018-09-25T07:16:11.618Z,76.07
2018-09-25T07:19:22.595Z,77.06
2018-09-25T07:22:34.540Z,78.20
2018-09-25T07:25:45.480Z,77.17
2018-09-25T07:28:56.262Z,76.40
2018-09-25T07:32:07.845Z,78.39
2018-09-25T07:35:18.649Z,77.93
2018-09-25T07:38:30.218Z,78.17
2018-09-25T07:41:42.287Z,78.44
2018-09-25T07:44:53.830Z,79.37
2018-09-25T07:48:06.099Z,79.52
2018-09-25T07:51:17.660Z,78.51
2018-09-25T07:54:29.755Z,77.62
2018-09-25T07:57:41.338Z,77.03
2018-09-25T08:00:52.303Z,74.92
2018-09-25T08:04:03.351Z,74.66
2018-09-25T08:07:13.982Z,73.41
2018-09-25T08:10:24.704Z,72.53
2018-09-25T08:13:35.391Z,71.86
2018-09-25T08:16:46.140Z,70.43
2018-09-25T08:19:56.935Z,70.43
2018-09-25T08:23:07.826Z,69.91
2018-09-25T08:26:19.566Z,67.21
2018-09-25T08:29:30.988Z,68.14
2018-09-25T08:32:43.142Z,66.76
2018-09-25T08:35:54.235Z,65.12
2018-09-25T08:39:04.913Z,65.44
2018-09-25T08:42:15.806Z,66.53
2018-09-25T08:45:27.515Z,66.11
2018-09-25T08:48:38.381Z,65.87
2018-09-25T08:51:50.368Z,64.27
2018-09-25T08:55:03.167Z,62.65
2018-09-25T08:58:14.886Z,63.85
2018-09-25T09:01:27.864Z,63.87
2018-09-25T09:04:38.877Z,63.46
2018-09-25T09:07:49.671Z,62.71
2018-09-25T09:11:00.451Z,60.46
2018-09-25T09:14:12.099Z,59.40
2018-09-25T09:17:24.041Z,60.62
2018-09-25T09:20:35.565Z,60.24
2018-09-25T09:23:49.306Z,58.92
2018-09-25T09:27:00.096Z,57.56
2018-09-25T09:30:11.655Z,56.46
2018-09-25T09:33:22.534Z,58.37
2018-09-25T09:36:33.451Z,55.93
2018-09-25T09:39:46.314Z,57.38
2018-09-25T09:42:57.199Z,54.77
2018-09-25T09:46:08.969Z,54.00
2018-09-25T09:49:21.597Z,54.56
2018-09-25T09:52:39.249Z,53.48
2018-09-25T09:55:52.201Z,53.21
2018-09-25T09:59:03.172Z,53.16
2018-09-25T10:02:15.949Z,52.34
2018-09-25T10:05:27.717Z,48.27
2018-09-25T10:08:38.586Z,51.77
2018-09-25T10:11:49.725Z,51.27
2018-09-25T10:15:02.113Z,48.66
2018-09-25T10:18:12.919Z,49.00
2018-09-25T10:21:23.640Z,49.56
2018-09-25T10:24:35.136Z,51.04
2018-09-25T10:27:45.930Z,46.09
2018-09-25T10:30:57.369Z,49.94
2018-09-25T10:34:09.411Z,50.54
2018-09-25T10:37:20.122Z,48.56
2018-09-25T10:40:30.677Z,48.67
2018-09-25T10:43:41.285Z,46.34
2018-09-25T10:46:52.728Z,47.50
2018-09-25T10:50:03.448Z,48.29
2018-09-25T10:53:14.147Z,45.63
2018-09-25T10:56:25.618Z,46.46
2018-09-25T10:59:36.202Z,47.46
2018-09-25T11:02:47.094Z,44.43
2018-09-25T11:05:57.640Z,42.45
2018-09-25T11:09:08.593Z,46.26
2018-09-25T11:12:19.465Z,45.65
2018-09-25T11:15:30.398Z,43.94
2018-09-25T11:18:41.166Z,46.42
2018-09-25T11:21:52.058Z,42.65
2018-09-25T11:25:02.696Z,43.67
2018-09-25T11:28:14.683Z,43.81
2018-09-25T11:31:25.418Z,43.92
2018-09-25T11:34:36.144Z,42.57
2018-09-25T11:37:46.973Z,43.46
2018-09-25T11:40:58.828Z,44.78
2018-09-25T11:44:10.592Z,41.68
2018-09-25T11:47:23.032Z,42.13
2018-09-25T11:50:33.948Z,38.94
2018-09-25T11:53:44.861Z,42.03
2018-09-25T11:56:56.226Z,40.34
2018-09-25T12:00:07.874Z,42.38
2018-09-25T12:03:19.613Z,43.62
2018-09-25T12:06:30.376Z,40.81
2018-09-25T12:09:42.258Z,38.42
2018-09-25T12:15:13.192Z,42.00
2018-09-25T12:18:25.151Z,41.75
2018-09-25T12:21:37.484Z,40.27
2018-09-25T12:24:48.386Z,40.15
2018-09-25T12:27:59.157Z,41.86
2018-09-25T12:31:10.316Z,41.17
2018-09-25T12:34:21.132Z,41.73
2018-09-25T12:37:32.821Z,37.84
2018-09-25T12:59:05.859Z,37.15
2018-09-25T13:02:18.733Z,38.94
2018-09-25T13:05:32.124Z,37.82
2018-09-25T13:08:43.939Z,35.08
2018-09-25T13:11:56.926Z,36.11
2018-09-25T13:15:08.815Z,37.41
2018-09-25T13:18:21.527Z,35.60
2018-09-25T13:21:32.522Z,34.98
2018-09-25T13:24:44.206Z,35.01
2018-09-25T13:27:57.384Z,34.24
2018-09-25T13:31:08.280Z,36.03
2018-09-25T13:34:19.116Z,36.44
2018-09-25T13:37:31.594Z,35.40
2018-09-25T13:40:43.635Z,36.06
2018-09-25T13:43:55.509Z,35.98
2018-09-25T13:47:06.633Z,35.23
2018-09-25T13:50:18.501Z,35.66
2018-09-25T13:53:29.487Z,35.82
2018-09-25T13:56:40.366Z,35.17
2018-09-25T13:59:51.536Z,34.40
2018-09-25T14:03:03.524Z,34.09
2018-09-25T14:06:14.499Z,35.29
2018-09-25T14:09:25.427Z,34.17
2018-09-25T14:12:36.410Z,35.65
2018-09-25T14:15:47.372Z,35.58
2018-09-25T14:18:59.041Z,36.62
2018-09-25T14:22:11.412Z,35.40
2018-09-25T14:25:26.032Z,37.12
2018-09-25T14:28:38.777Z,35.22
2018-09-25T14:31:51.647Z,35.53
2018-09-25T14:35:03.728Z,34.91
2018-09-25T14:38:15.446Z,36.28
2018-09-25T14:41:27.969Z,35.47
2018-09-25T14:44:40.308Z,36.75
2018-09-25T14:47:51.500Z,36.84
2018-09-25T14:51:02.741Z,36.03
2018-09-25T14:54:14.986Z,38.60
2018-09-25T14:57:28.049Z,38.70
2018-09-25T15:00:39.936Z,39.32
2018-09-25T15:03:52.871Z,38.71
2018-09-25T15:07:07.447Z,39.12
2018-09-25T15:10:25.797Z,37.81
2018-09-25T15:13:43.355Z,39.21
2018-09-25T15:16:57.281Z,40.74
2018-09-25T15:20:08.229Z,39.16
2018-09-25T15:23:20.075Z,40.24
2018-09-25T15:26:31.492Z,40.71
2018-09-25T15:29:44.110Z,39.97
2018-09-25T15:32:57.087Z,40.90
2018-09-25T15:36:08.996Z,40.63
2018-09-25T15:39:20.832Z,42.37
2018-09-25T15:42:32.629Z,41.80
2018-09-25T15:45:43.447Z,41.80
2018-09-25T15:48:56.360Z,41.53
2018-09-25T15:52:08.038Z,40.75
2018-09-25T15:55:20.210Z,41.38
2018-09-25T15:58:31.052Z,42.40
2018-09-25T16:01:42.909Z,43.46
2018-09-25T16:04:54.789Z,40.90
2018-09-25T16:08:06.813Z,43.52
2018-09-25T16:11:19.487Z,43.34
2018-09-25T16:14:31.224Z,42.53
2018-09-25T16:21:12.699Z,44.60
2018-09-25T16:24:23.313Z,43.53
2018-09-25T16:27:35.942Z,43.85
2018-09-25T16:30:46.602Z,45.14
2018-09-25T16:33:59.894Z,47.05
2018-09-25T16:37:11.727Z,47.11
2018-09-25T16:40:25.410Z,49.20
2018-09-25T16:43:40.006Z,49.97
2018-09-25T16:46:56.253Z,50.72
2018-09-25T16:50:08.589Z,53.25
2018-09-25T16:53:20.910Z,52.24
2018-09-25T16:56:33.394Z,53.08
2018-09-25T16:59:47.850Z,55.60
2018-09-25T17:03:00.642Z,54.47
2018-09-25T17:06:13.938Z,56.82
2018-09-25T17:09:28.010Z,58.80
2018-09-25T17:12:42.838Z,59.09
2018-09-25T17:15:55.116Z,59.51
2018-09-25T17:19:06.065Z,60.06
2018-09-25T17:22:19.089Z,59.80
2018-09-25T17:25:31.034Z,60.60
2018-09-25T17:28:42.347Z,62.19
2018-09-25T17:31:55.146Z,62.03
2018-09-25T17:35:08.529Z,63.81
2018-09-25T17:38:19.403Z,62.56
2018-09-25T17:41:33.739Z,62.57
2018-09-25T17:44:46.088Z,64.51
2018-09-25T17:47:57.273Z,63.88
2018-09-25T17:51:09.218Z,65.38
2018-09-25T17:54:20.931Z,65.26
2018-09-25T17:57:31.839Z,67.90
2018-09-25T18:00:43.221Z,67.54
2018-09-25T18:03:54.772Z,68.46
2018-09-25T18:07:05.409Z,68.27
2018-09-25T18:10:16.559Z,68.49
2018-09-25T18:13:28.212Z,68.86
2018-09-25T18:16:38.991Z,69.32
2018-09-25T18:19:52.782Z,70.56
2018-09-25T18:23:04.519Z,71.25
2018-09-25T18:26:15.202Z,70.71
2018-09-25T18:29:27.909Z,70.99
2018-09-25T18:32:39.699Z,72.42
2018-09-25T18:35:51.168Z,72.20
2018-09-25T18:39:02.689Z,72.12
2018-09-25T18:42:14.491Z,73.02
2018-09-25T18:45:25.164Z,72.72
2018-09-25T18:48:35.798Z,73.88
2018-09-25T18:51:47.478Z,74.33
2018-09-25T18:54:59.305Z,73.79
2018-09-25T18:58:11.143Z,75.62
2018-09-25T19:01:23.004Z,73.96
2018-09-25T19:04:35.429Z,75.14
2018-09-25T19:07:47.907Z,74.37
2018-09-25T19:10:59.377Z,74.85
2018-09-25T19:14:11.596Z,75.70
2018-09-25T19:17:23.483Z,76.35
2018-09-25T19:20:34.237Z,75.39
2018-09-25T19:23:46.992Z,76.86
2018-09-25T19:26:59.111Z,76.57
2018-09-25T19:30:11.154Z,76.47
2018-09-25T19:33:21.972Z,77.44
2018-09-25T19:36:33.649Z,76.51
2018-09-25T19:39:46.513Z,76.39
2018-09-25T19:43:00.130Z,77.84
2018-09-25T19:46:12.049Z,77.00
2018-09-25T19:49:23.959Z,77.89
2018-09-25T19:52:36.552Z,77.75
2018-09-25T19:55:48.284Z,77.67
2018-09-25T19:59:00.052Z,78.11
2018-09-25T20:02:11.953Z,77.94
2018-09-25T20:05:23.727Z,77.86
2018-09-25T20:08:35.463Z,77.82
2018-09-25T20:11:48.242Z,80.08
2018-09-25T20:14:59.246Z,79.05
2018-09-25T20:18:10.123Z,78.59
2018-09-25T20:21:21.556Z,77.87
2018-09-25T20:24:32.984Z,79.10
2018-09-25T20:27:44.816Z,79.32
2018-09-25T20:30:56.506Z,78.52
2018-09-25T20:34:07.203Z,78.62
2018-09-25T20:37:20.517Z,78.22
2018-09-25T20:40:32.232Z,79.96
2018-09-25T20:43:43.010Z,79.32
2018-09-25T20:46:53.645Z,80.50
2018-09-25T20:50:05.308Z,80.18
2018-09-25T20:53:17.237Z,80.34
2018-09-25T20:56:28.679Z,79.71
2018-09-25T20:59:40.436Z,79.26
2018-09-25T21:02:52.251Z,80.33
2018-09-25T21:06:03.051Z,80.52
2018-09-25T21:09:14.332Z,79.78
2018-09-25T21:15:02.709Z,80.91
2018-09-25T21:18:15.115Z,81.32
2018-09-25T21:21:26.731Z,81.67
2018-09-25T21:24:38.291Z,81.77
2018-09-25T21:27:50.709Z,81.76
2018-09-25T21:31:02.202Z,80.76
2018-09-25T21:34:12.943Z,79.90
2018-09-25T21:37:24.997Z,80.23
2018-09-25T21:40:35.586Z,81.79
2018-09-25T21:43:46.961Z,81.99
2018-09-25T21:46:57.642Z,81.23
2018-09-25T21:50:09.213Z,80.95
2018-09-25T21:53:22.166Z,81.55
2018-09-25T21:56:32.933Z,80.79
2018-09-25T22:02:47.966Z,80.84
2018-09-25T22:05:58.687Z,81.48
2018-09-25T22:09:11.792Z,81.78
2018-09-25T22:12:23.270Z,80.96
2018-09-25T22:15:34.242Z,79.81
2018-09-25T22:18:45.719Z,80.71
2018-09-25T22:21:57.301Z,80.41
2018-09-25T22:25:09.561Z,80.98
2018-09-25T22:28:22.159Z,82.09
2018-09-25T22:31:34.020Z,82.28
2018-09-25T22:34:45.899Z,82.69
2018-09-25T22:37:56.624Z,82.59
2018-09-25T22:41:08.461Z,82.42
2018-09-25T22:44:19.184Z,82.11
2018-09-25T22:47:29.876Z,83.14
2018-09-25T22:50:42.617Z,82.01
2018-09-25T22:53:55.587Z,81.94
2018-09-25T22:57:06.517Z,82.17
2018-09-25T23:00:18.090Z,82.35
2018-09-25T23:03:29.899Z,82.41
2018-09-25T23:06:41.683Z,81.59
2018-09-25T23:09:53.691Z,80.62
2018-09-25T23:13:04.453Z,82.27
2018-09-25T23:16:15.070Z,83.35
2018-09-25T23:19:26.778Z,81.82
2018-09-25T23:22:38.630Z,82.96
2018-09-25T23:25:51.062Z,82.98
2018-09-25T23:29:02.404Z,82.04
2018-09-25T23:32:15.267Z,82.19
2018-09-25T23:35:27.138Z,81.25
2018-09-25T23:38:37.795Z,82.27
2018-09-25T23:41:49.322Z,82.28
2018-09-25T23:45:59.148Z,82.50
2018-09-25T23:49:12.087Z,83.06
2018-09-25T23:52:25.610Z,82.20
2018-09-25T23:56:40.942Z,82.04
2018-09-25T23:59:56.658Z,83.82
